createdAt,value
2022-12-04T00:00:27.568Z,104785.84
2022-12-04T00:05:30.069Z,104789.00
2022-12-04T00:10:32.327Z,104792.22
2022-12-04T00:15:34.780Z,104790.31
2022-12-04T00:20:40.734Z,104785.44
2022-12-04T00:25:43.575Z,104790.84
2022-12-04T00:30:46.441Z,104790.28
2022-12-04T00:35:48.867Z,104791.06
2022-12-04T00:40:52.217Z,104779.41
2022-12-04T00:45:54.930Z,104785.63
2022-12-04T00:51:02.571Z,104773.31
2022-12-04T00:56:10.861Z,104778.31
2022-12-04T01:01:16.716Z,104788.31
2022-12-04T01:06:26.716Z,104788.53
2022-12-04T01:11:30.361Z,104780.53
2022-12-04T01:16:36.087Z,104783.63
2022-12-04T01:21:39.670Z,104778.06
2022-12-04T01:26:42.243Z,104780.31
2022-12-04T01:31:44.501Z,104781.41
2022-12-04T01:36:47.144Z,104786.75
2022-12-04T01:41:49.755Z,104794.75
2022-12-04T01:46:56.479Z,104790.06
2022-12-04T01:52:07.776Z,104792.81
2022-12-04T01:57:16.907Z,104797.41
2022-12-04T02:02:24.662Z,104811.59
2022-12-04T02:07:27.947Z,104817.00
2022-12-04T02:12:56.907Z,104804.91
2022-12-04T02:18:26.506Z,104817.69
2022-12-04T02:23:51.072Z,104821.19
2022-12-04T02:29:21.003Z,104819.63
2022-12-04T02:34:30.790Z,104814.75
2022-12-04T02:40:04.866Z,104814.28
2022-12-04T02:45:12.394Z,104821.63
2022-12-04T02:50:18.857Z,104833.19
2022-12-04T02:55:30.120Z,104833.63
2022-12-04T03:00:33.565Z,104829.97
2022-12-04T03:05:48.971Z,104833.50
2022-12-04T03:10:55.811Z,104841.28
2022-12-04T03:16:09.135Z,104836.06
2022-12-04T03:21:19.745Z,104827.75
2022-12-04T03:26:29.073Z,104835.31
2022-12-04T03:31:48.461Z,104845.84
2022-12-04T03:36:57.445Z,104856.06
2022-12-04T03:42:06.968Z,104850.28
2022-12-04T03:47:17.561Z,104850.50
2022-12-04T03:52:25.835Z,104850.06
2022-12-04T03:57:33.228Z,104835.50
2022-12-04T04:02:40.504Z,104845.84
2022-12-04T04:07:55.399Z,104870.38
2022-12-04T04:13:21.269Z,104861.81
2022-12-04T04:18:42.504Z,104871.78
2022-12-04T04:24:09.025Z,104869.13
2022-12-04T04:29:11.890Z,104885.81
2022-12-04T04:34:30.528Z,104889.13
2022-12-04T04:39:48.683Z,104900.25
2022-12-04T04:45:00.366Z,104896.97
2022-12-04T04:50:06.788Z,104906.53
2022-12-04T04:55:10.517Z,104915.31
2022-12-04T05:00:16.182Z,104908.78
2022-12-04T05:05:18.945Z,104924.41
2022-12-04T05:10:21.386Z,104917.03
2022-12-04T05:15:23.844Z,104927.91
2022-12-04T05:20:26.176Z,104924.13
2022-12-04T05:25:28.632Z,104937.47
2022-12-04T05:30:30.934Z,104941.47
2022-12-04T05:35:33.661Z,104946.16
2022-12-04T05:40:36.744Z,104936.47
2022-12-04T05:45:39.234Z,104939.81
2022-12-04T05:50:41.786Z,104952.72
2022-12-04T05:55:44.233Z,104947.84
2022-12-04T06:00:46.724Z,104938.91
2022-12-04T06:05:49.250Z,104939.91
2022-12-04T06:10:51.537Z,104942.13
2022-12-04T06:15:54.350Z,104942.00
2022-12-04T06:20:59.937Z,104945.97
2022-12-04T06:26:07.092Z,104939.56
2022-12-04T06:31:12.337Z,104938.19
2022-12-04T06:36:17.917Z,104945.75
2022-12-04T06:41:21.776Z,104949.66
2022-12-04T06:46:28.991Z,104946.38
2022-12-04T06:51:37.310Z,104953.72
2022-12-04T06:56:39.799Z,104947.50
2022-12-04T07:01:42.499Z,104951.09
2022-12-04T07:06:45.178Z,104952.19
2022-12-04T07:11:47.785Z,104959.56
2022-12-04T07:16:50.567Z,104939.19
2022-12-04T07:21:53.113Z,104955.63
2022-12-04T07:26:55.838Z,104948.47
2022-12-04T07:31:58.297Z,104946.59
2022-12-04T07:37:00.863Z,104940.44
2022-12-04T07:42:03.497Z,104944.22
2022-12-04T07:47:05.967Z,104951.41
2022-12-04T07:52:08.444Z,104926.53
2022-12-04T07:57:10.929Z,104933.16
2022-12-04T08:02:13.904Z,104935.84
2022-12-04T08:07:16.432Z,104924.31
2022-12-04T08:12:18.968Z,104913.53
2022-12-04T08:17:21.546Z,104912.75
2022-12-04T08:22:25.373Z,104906.78
2022-12-04T08:27:27.951Z,104899.56
2022-12-04T08:32:30.438Z,104896.59
2022-12-04T08:37:32.851Z,104903.09
2022-12-04T08:42:35.295Z,104893.88
2022-12-04T08:47:37.755Z,104886.38
2022-12-04T08:52:40.188Z,104877.19
2022-12-04T08:57:42.658Z,104875.47
2022-12-04T09:02:45.217Z,104877.69
2022-12-04T09:07:47.836Z,104876.22
2022-12-04T09:12:50.650Z,104873.31
2022-12-04T09:17:53.137Z,104869.94
2022-12-04T09:23:04.411Z,104870.75
2022-12-04T09:28:07.577Z,104870.19
2022-12-04T09:33:17.591Z,104856.28
2022-12-04T09:38:20.429Z,104854.19
2022-12-04T09:43:35.687Z,104855.81
2022-12-04T09:48:42.404Z,104835.81
2022-12-04T09:54:03.456Z,104828.09
2022-12-04T09:59:15.952Z,104840.78
2022-12-04T10:04:19.643Z,104826.88
2022-12-04T10:09:37.206Z,104828.25
2022-12-04T10:15:00.728Z,104825.50
2022-12-04T10:20:18.592Z,104818.03
2022-12-04T10:25:23.555Z,104822.16
2022-12-04T10:30:31.620Z,104805.09
2022-12-04T10:35:35.719Z,104806.13
2022-12-04T10:40:47.588Z,104792.63
2022-12-04T10:45:50.243Z,104806.28
2022-12-04T10:50:52.959Z,104801.41
2022-12-04T10:55:55.385Z,104801.72
2022-12-04T11:01:11.009Z,104806.00
2022-12-04T11:06:14.867Z,104798.75
2022-12-04T11:11:24.920Z,104789.78
2022-12-04T11:16:41.118Z,104792.19
2022-12-04T11:21:43.650Z,104783.25
2022-12-04T11:26:48.236Z,104778.38
2022-12-04T11:31:55.785Z,104768.06
2022-12-04T11:36:59.523Z,104781.16
2022-12-04T11:42:14.399Z,104782.78
2022-12-04T11:47:19.026Z,104777.34
2022-12-04T11:52:42.592Z,104778.78
2022-12-04T11:58:00.381Z,104783.06
2022-12-04T12:03:30.307Z,104779.69
2022-12-04T12:08:59.458Z,104786.94
2022-12-04T12:14:21.880Z,104779.97
2022-12-04T12:19:42.765Z,104784.88
2022-12-04T12:24:58.376Z,104781.16
2022-12-04T12:30:03.965Z,104790.59
2022-12-04T12:35:23.080Z,104790.06
2022-12-04T12:40:46.204Z,104790.94
2022-12-04T12:45:51.761Z,104784.75
2022-12-04T12:51:29.155Z,104788.72
2022-12-04T12:56:41.310Z,104794.22
2022-12-04T13:02:04.447Z,104797.66
2022-12-04T13:07:19.394Z,104808.16
2022-12-04T13:12:23.155Z,104798.91
2022-12-04T13:17:36.336Z,104814.59
2022-12-04T13:22:57.796Z,104815.53
2022-12-04T13:28:18.650Z,104814.44
2022-12-04T13:33:30.396Z,104807.19
2022-12-04T13:38:38.742Z,104809.94
2022-12-04T13:43:44.405Z,104803.97
2022-12-04T13:48:46.835Z,104799.91
2022-12-04T13:54:01.350Z,104795.13
2022-12-04T13:59:20.375Z,104801.88
2022-12-04T14:04:44.870Z,104791.50
2022-12-04T14:09:53.624Z,104791.09
2022-12-04T14:15:19.844Z,104797.69
2022-12-04T14:20:27.054Z,104783.94
2022-12-04T14:25:40.426Z,104790.41
2022-12-04T14:30:45.302Z,104781.13
2022-12-04T14:35:59.232Z,104784.47
2022-12-04T14:41:02.060Z,104771.78
2022-12-04T14:46:13.300Z,104773.38
2022-12-04T14:51:34.624Z,104781.59
2022-12-04T14:57:01.934Z,104782.75
2022-12-04T15:02:05.100Z,104784.38
2022-12-04T15:07:07.995Z,104786.56
2022-12-04T15:12:36.806Z,104793.88
2022-12-04T15:17:39.378Z,104791.16
2022-12-04T15:22:42.180Z,104793.19
2022-12-04T15:27:47.224Z,104789.81
2022-12-04T15:32:52.496Z,104796.88
2022-12-04T15:37:55.698Z,104798.25
2022-12-04T15:43:15.878Z,104796.13
2022-12-04T15:48:31.884Z,104801.88
2022-12-04T15:53:38.924Z,104799.66
2022-12-04T15:58:42.062Z,104796.59
2022-12-04T16:03:47.126Z,104810.22
2022-12-04T16:08:53.014Z,104804.91
2022-12-04T16:14:13.488Z,104803.13
2022-12-04T16:19:26.255Z,104796.56
2022-12-04T16:24:29.161Z,104796.56
2022-12-04T16:29:31.861Z,104796.56
2022-12-04T16:34:34.322Z,104794.69
2022-12-04T16:39:41.219Z,104796.31
2022-12-04T16:44:44.191Z,104795.34
2022-12-04T16:49:50.044Z,104792.78
2022-12-04T16:54:52.713Z,104802.25
2022-12-04T16:59:57.749Z,104803.28
2022-12-04T17:05:00.638Z,104800.28
2022-12-04T17:10:03.639Z,104800.47
2022-12-04T17:15:08.081Z,104790.34
2022-12-04T17:20:18.946Z,104798.84
2022-12-04T17:25:21.524Z,104797.34
2022-12-04T17:30:24.077Z,104794.84
2022-12-04T17:35:28.924Z,104790.16
2022-12-04T17:40:31.414Z,104800.59
2022-12-04T17:45:36.028Z,104793.06
2022-12-04T17:50:38.525Z,104790.72
2022-12-04T17:55:41.217Z,104792.38
2022-12-04T18:00:43.719Z,104792.47
2022-12-04T18:05:46.175Z,104796.84
2022-12-04T18:10:48.618Z,104790.16
2022-12-04T18:15:52.724Z,104788.19
2022-12-04T18:21:13.338Z,104794.13
2022-12-04T18:26:17.173Z,104794.75
2022-12-04T18:31:20.635Z,104788.25
2022-12-04T18:36:26.484Z,104789.69
2022-12-04T18:41:30.043Z,104797.50
2022-12-04T18:46:33.367Z,104794.41
2022-12-04T18:51:39.681Z,104795.41
2022-12-04T18:56:43.161Z,104788.22
2022-12-04T19:01:45.842Z,104794.03
2022-12-04T19:06:50.646Z,104796.06
2022-12-04T19:11:54.251Z,104795.09
2022-12-04T19:16:56.840Z,104798.63
2022-12-04T19:22:01.339Z,104803.59
2022-12-04T19:27:11.205Z,104806.06
2022-12-04T19:32:14.457Z,104808.72
2022-12-04T19:37:19.053Z,104810.66
2022-12-04T19:42:21.431Z,104808.03
2022-12-04T19:47:23.911Z,104802.44
2022-12-04T19:52:26.391Z,104798.53
2022-12-04T19:57:28.911Z,104798.84
2022-12-04T20:02:32.720Z,104800.69
2022-12-04T20:07:35.270Z,104781.78
2022-12-04T20:12:37.799Z,104767.97
2022-12-04T20:17:40.052Z,104783.88
2022-12-04T20:22:42.494Z,104781.00
2022-12-04T20:27:44.953Z,104774.50
2022-12-04T20:32:47.616Z,104767.69
2022-12-04T20:37:50.041Z,104765.84
2022-12-04T20:42:52.720Z,104765.84
2022-12-04T20:47:55.473Z,104758.31
2022-12-04T20:52:57.890Z,104758.31
2022-12-04T20:58:00.181Z,104747.31
2022-12-04T21:03:02.643Z,104746.72
2022-12-04T21:08:05.341Z,104743.59
2022-12-04T21:13:26.404Z,104733.50
2022-12-04T21:18:28.940Z,104735.91
2022-12-04T21:23:31.447Z,104737.38
2022-12-04T21:28:33.965Z,104721.91
2022-12-04T21:33:36.520Z,104729.28
2022-12-04T21:38:40.503Z,104744.75
2022-12-04T21:43:42.961Z,104729.59
2022-12-04T21:48:45.493Z,104724.06
2022-12-04T21:53:47.908Z,104722.38
2022-12-04T21:58:50.335Z,104726.13
2022-12-04T22:03:53.212Z,104726.25
2022-12-04T22:08:56.148Z,104725.25
2022-12-04T22:13:58.676Z,104716.59
2022-12-04T22:19:01.024Z,104728.97
2022-12-04T22:24:04.516Z,104705.16
2022-12-04T22:29:41.580Z,104705.31
2022-12-04T22:34:30.787Z,104699.94
2022-12-04T22:39:34.092Z,104699.03
2022-12-04T22:44:36.520Z,104705.34
2022-12-04T22:49:39.037Z,104703.69
2022-12-04T22:54:41.370Z,104698.25
2022-12-04T22:59:43.871Z,104696.28
2022-12-04T23:04:46.307Z,104696.28
2022-12-04T23:09:48.781Z,104700.50
2022-12-04T23:14:51.357Z,104692.03
2022-12-04T23:19:53.629Z,104700.03
2022-12-04T23:24:56.169Z,104684.16
2022-12-04T23:29:58.561Z,104694.91
2022-12-04T23:35:01.071Z,104676.47
2022-12-04T23:40:04.641Z,104673.44
2022-12-04T23:45:08.181Z,104678.94
2022-12-04T23:50:10.858Z,104662.13
2022-12-04T23:55:13.307Z,104670.56
